createdAt,value
2023-04-18T00:00:48.770Z,2.35
2023-04-18T00:03:55.411Z,2.70
2023-04-18T00:06:59.016Z,2.37
2023-04-18T00:10:03.474Z,2.90
2023-04-18T00:13:07.527Z,2.60
2023-04-18T00:16:13.314Z,2.60
2023-04-18T00:19:18.900Z,2.30
2023-04-18T00:22:22.891Z,2.17
2023-04-18T00:25:26.680Z,2.25
2023-04-18T00:28:30.375Z,2.72
2023-04-18T00:31:33.970Z,1.95
2023-04-18T00:34:40.442Z,2.75
2023-04-18T00:37:43.931Z,2.50
2023-04-18T00:40:47.711Z,2.63
2023-04-18T00:43:51.425Z,3.13
2023-04-18T00:46:55.161Z,3.07
2023-04-18T00:50:00.761Z,2.83
2023-04-18T00:53:05.110Z,2.72
2023-04-18T00:56:08.920Z,3.10
2023-04-18T00:59:13.197Z,2.60
2023-04-18T01:02:17.404Z,3.10
2023-04-18T01:05:24.668Z,3.10
2023-04-18T01:08:28.915Z,2.80
2023-04-18T01:11:36.029Z,2.70
2023-04-18T01:14:43.421Z,2.65
2023-04-18T01:17:47.411Z,2.37
2023-04-18T01:20:54.977Z,2.90
2023-04-18T01:24:07.742Z,2.97
2023-04-18T01:27:13.593Z,2.80
2023-04-18T01:30:17.345Z,2.60
2023-04-18T01:33:20.963Z,2.20
2023-04-18T01:36:24.696Z,2.70
2023-04-18T01:39:30.144Z,2.60
2023-04-18T01:42:33.901Z,2.40
2023-04-18T01:45:37.640Z,2.72
2023-04-18T01:48:41.354Z,2.37
2023-04-18T01:51:45.078Z,2.90
2023-04-18T01:54:50.166Z,2.40
2023-04-18T01:57:56.202Z,2.78
2023-04-18T02:01:00.015Z,2.90
2023-04-18T02:04:03.865Z,2.85
2023-04-18T02:07:07.633Z,2.92
2023-04-18T02:10:13.964Z,2.50
2023-04-18T02:13:17.669Z,2.47
2023-04-18T02:16:21.723Z,2.55
2023-04-18T02:19:25.739Z,3.10
2023-04-18T02:22:29.366Z,2.72
2023-04-18T02:25:34.613Z,3.45
2023-04-18T02:28:39.200Z,3.20
2023-04-18T02:31:43.359Z,3.45
2023-04-18T02:34:47.423Z,3.58
2023-04-18T02:37:53.505Z,3.45
2023-04-18T02:40:58.318Z,4.23
2023-04-18T02:44:03.902Z,4.22
2023-04-18T02:47:07.828Z,4.03
2023-04-18T02:50:16.230Z,4.50
2023-04-18T02:53:19.903Z,4.53
2023-04-18T02:56:31.054Z,5.15
2023-04-18T02:59:54.938Z,5.00
2023-04-18T03:02:58.659Z,5.10
2023-04-18T03:06:16.768Z,4.68
2023-04-18T03:09:20.535Z,5.25
2023-04-18T03:12:31.472Z,5.63
2023-04-18T03:15:35.424Z,4.68
2023-04-18T03:18:39.603Z,4.90
2023-04-18T03:21:43.439Z,4.67
2023-04-18T03:24:48.732Z,5.18
2023-04-18T03:27:55.318Z,4.72
2023-04-18T03:31:00.943Z,4.68
2023-04-18T03:34:04.999Z,5.10
2023-04-18T03:37:09.003Z,5.43
2023-04-18T03:40:19.028Z,5.47
2023-04-18T03:43:25.840Z,4.73
2023-04-18T03:46:29.936Z,5.47
2023-04-18T03:49:35.038Z,5.47
2023-04-18T03:52:40.561Z,4.90
2023-04-18T03:55:44.878Z,5.82
2023-04-18T03:58:53.459Z,5.57
2023-04-18T04:01:59.053Z,5.65
2023-04-18T04:05:03.598Z,4.95
2023-04-18T04:08:07.680Z,5.32
2023-04-18T04:11:11.867Z,5.13
2023-04-18T04:14:17.950Z,5.33
2023-04-18T04:17:23.206Z,5.43
2023-04-18T04:20:28.649Z,5.50
2023-04-18T04:23:43.577Z,5.47
2023-04-18T04:26:52.482Z,5.50
2023-04-18T04:30:02.555Z,5.63
2023-04-18T04:33:06.880Z,6.50
2023-04-18T04:36:15.689Z,6.50
2023-04-18T04:39:22.183Z,6.38
2023-04-18T04:42:44.188Z,6.35
2023-04-18T04:45:57.711Z,6.77
2023-04-18T04:49:01.953Z,6.63
2023-04-18T04:52:05.525Z,7.28
2023-04-18T04:55:09.932Z,7.10
2023-04-18T04:58:13.496Z,6.70
2023-04-18T05:01:36.434Z,6.85
2023-04-18T05:04:40.385Z,6.22
2023-04-18T05:07:44.181Z,6.82
2023-04-18T05:10:47.714Z,6.95
2023-04-18T05:13:51.382Z,7.15
2023-04-18T05:16:56.768Z,7.67
2023-04-18T05:20:00.484Z,7.20
2023-04-18T05:23:04.215Z,7.72
2023-04-18T05:26:08.204Z,7.37
2023-04-18T05:29:11.776Z,6.95
2023-04-18T05:32:18.684Z,6.90
2023-04-18T05:35:22.307Z,7.15
2023-04-18T05:38:26.387Z,7.50
2023-04-18T05:41:30.131Z,7.43
2023-04-18T05:44:33.877Z,6.43
2023-04-18T05:47:38.871Z,6.57
2023-04-18T05:50:42.607Z,6.72
2023-04-18T05:53:46.455Z,6.38
2023-04-18T05:56:50.258Z,7.13
2023-04-18T05:59:53.856Z,7.00
2023-04-18T06:02:59.187Z,6.97
2023-04-18T06:06:02.893Z,6.35
2023-04-18T06:09:06.614Z,6.43
2023-04-18T06:12:10.253Z,6.45
2023-04-18T06:15:13.927Z,5.82
2023-04-18T06:18:19.014Z,6.20
2023-04-18T06:21:23.356Z,6.78
2023-04-18T06:24:27.964Z,6.60
2023-04-18T06:27:32.423Z,5.50
2023-04-18T06:30:36.586Z,5.55
2023-04-18T06:33:41.697Z,5.43
2023-04-18T06:36:45.302Z,5.82
2023-04-18T06:39:48.992Z,5.78
2023-04-18T06:42:52.320Z,5.35
2023-04-18T06:45:56.904Z,5.40
2023-04-18T06:49:02.193Z,5.80
2023-04-18T06:52:05.904Z,5.30
2023-04-18T06:55:10.339Z,5.50
2023-04-18T06:58:16.269Z,5.63
2023-04-18T07:01:19.952Z,5.80
2023-04-18T07:04:25.235Z,5.30
2023-04-18T07:07:29.255Z,4.88
2023-04-18T07:10:33.167Z,5.47
2023-04-18T07:13:36.560Z,5.75
2023-04-18T07:16:40.314Z,5.13
2023-04-18T07:19:45.502Z,5.37
2023-04-18T07:22:50.072Z,5.53
2023-04-18T07:25:53.625Z,5.50
2023-04-18T07:28:57.304Z,6.00
2023-04-18T07:32:00.814Z,5.95
2023-04-18T07:35:06.808Z,5.70
2023-04-18T07:38:11.682Z,6.75
2023-04-18T07:41:15.352Z,5.78
2023-04-18T07:44:21.440Z,5.65
2023-04-18T07:47:26.904Z,5.47
2023-04-18T07:50:33.160Z,6.07
2023-04-18T07:53:36.816Z,5.35
2023-04-18T07:56:40.198Z,5.53
2023-04-18T07:59:43.829Z,6.00
2023-04-18T08:02:47.546Z,5.75
2023-04-18T08:05:52.664Z,5.70
2023-04-18T08:08:57.512Z,5.90
2023-04-18T08:12:01.308Z,5.60
2023-04-18T08:15:05.748Z,5.75
2023-04-18T08:18:09.404Z,5.85
2023-04-18T08:21:14.381Z,5.70
2023-04-18T08:24:18.003Z,4.85
2023-04-18T08:27:21.630Z,5.80
2023-04-18T08:30:25.797Z,5.70
2023-04-18T08:33:30.132Z,6.15
2023-04-18T08:36:36.244Z,5.72
2023-04-18T08:39:39.840Z,6.15
2023-04-18T08:42:45.443Z,6.40
2023-04-18T08:45:49.139Z,6.10
2023-04-18T08:48:53.630Z,6.15
2023-04-18T08:52:01.739Z,6.37
2023-04-18T08:55:06.444Z,6.60
2023-04-18T08:58:12.574Z,6.85
2023-04-18T09:01:17.840Z,6.13
2023-04-18T09:04:37.341Z,6.38
2023-04-18T09:07:43.961Z,6.05
2023-04-18T09:10:47.508Z,6.78
2023-04-18T09:13:51.862Z,6.00
2023-04-18T09:16:56.385Z,6.13
2023-04-18T09:20:02.004Z,6.75
2023-04-18T09:23:11.044Z,6.03
2023-04-18T09:26:25.184Z,5.97
2023-04-18T09:29:46.679Z,5.82
2023-04-18T09:32:59.366Z,5.30
2023-04-18T09:36:18.942Z,5.40
2023-04-18T09:39:29.466Z,5.90
2023-04-18T09:42:38.314Z,6.18
2023-04-18T09:45:42.035Z,5.95
2023-04-18T09:48:45.759Z,5.13
2023-04-18T09:51:52.457Z,5.00
2023-04-18T09:55:00.355Z,5.20
2023-04-18T09:58:08.741Z,4.70
2023-04-18T10:01:13.546Z,4.47
2023-04-18T10:04:19.194Z,4.00
2023-04-18T10:07:26.727Z,4.25
2023-04-18T10:10:31.977Z,4.70
2023-04-18T10:13:40.616Z,4.32
2023-04-18T10:16:48.637Z,4.30
2023-04-18T10:20:08.220Z,4.40
2023-04-18T10:23:48.730Z,4.80
2023-04-18T10:26:53.919Z,4.45
2023-04-18T10:29:57.376Z,4.38
2023-04-18T10:33:31.137Z,4.15
2023-04-18T10:36:38.957Z,4.40
2023-04-18T10:39:58.605Z,4.10
2023-04-18T10:43:03.516Z,4.63
2023-04-18T10:46:24.256Z,4.55
2023-04-18T10:49:34.189Z,3.90
2023-04-18T10:52:38.172Z,4.17
2023-04-18T10:55:54.285Z,4.07
2023-04-18T10:59:04.618Z,4.18
2023-04-18T11:02:28.849Z,3.80
2023-04-18T11:05:33.143Z,3.83
2023-04-18T11:08:36.528Z,3.50
2023-04-18T11:11:41.469Z,4.60
2023-04-18T11:14:49.513Z,4.10
2023-04-18T11:18:02.112Z,4.20
2023-04-18T11:21:06.278Z,4.20
2023-04-18T11:24:10.247Z,4.13
2023-04-18T11:27:14.090Z,4.32
2023-04-18T11:30:20.116Z,4.20
2023-04-18T11:33:24.793Z,4.32
2023-04-18T11:36:28.795Z,3.78
2023-04-18T11:39:36.548Z,4.03
2023-04-18T11:42:42.557Z,3.90
2023-04-18T11:45:57.481Z,4.05
2023-04-18T11:49:01.255Z,4.18
2023-04-18T11:52:12.800Z,4.07
2023-04-18T11:55:21.419Z,3.90
2023-04-18T11:58:32.979Z,3.63
2023-04-18T12:01:38.192Z,3.90
2023-04-18T12:04:56.096Z,3.92
2023-04-18T12:08:08.386Z,3.88
2023-04-18T12:11:20.802Z,3.80
2023-04-18T12:14:24.814Z,3.20
2023-04-18T12:17:30.144Z,3.72
2023-04-18T12:20:39.133Z,3.40
2023-04-18T12:23:42.873Z,3.90
2023-04-18T12:26:47.126Z,3.77
2023-04-18T12:29:50.564Z,4.03
2023-04-18T12:32:58.057Z,4.82
2023-04-18T12:36:01.442Z,5.53
2023-04-18T12:39:05.830Z,5.60
2023-04-18T12:42:09.189Z,4.90
2023-04-18T12:45:14.572Z,4.88
2023-04-18T12:48:19.575Z,4.70
2023-04-18T12:51:23.338Z,4.68
2023-04-18T12:54:26.690Z,4.10
2023-04-18T12:57:31.884Z,4.40
2023-04-18T13:00:35.737Z,4.77
2023-04-18T13:03:42.136Z,4.63
2023-04-18T13:06:45.731Z,4.38
2023-04-18T13:09:50.152Z,4.68
2023-04-18T13:12:54.398Z,5.10
2023-04-18T13:15:58.083Z,4.43
2023-04-18T13:19:02.928Z,4.50
2023-04-18T13:22:06.867Z,4.73
2023-04-18T13:25:12.107Z,4.20
2023-04-18T13:28:15.892Z,4.10
2023-04-18T13:31:19.422Z,4.60
2023-04-18T13:34:24.933Z,4.22
2023-04-18T13:37:28.333Z,4.60
2023-04-18T13:40:33.615Z,4.53
2023-04-18T13:43:37.072Z,4.13
2023-04-18T13:46:41.449Z,3.90
2023-04-18T13:49:46.250Z,3.70
2023-04-18T13:52:52.029Z,3.80
2023-04-18T13:55:55.808Z,3.60
2023-04-18T13:58:59.806Z,4.03
2023-04-18T14:02:03.360Z,3.70
2023-04-18T14:05:10.113Z,3.50
2023-04-18T14:08:14.229Z,4.07
2023-04-18T14:11:18.389Z,4.25
2023-04-18T14:14:21.820Z,4.73
2023-04-18T14:17:25.866Z,4.90
2023-04-18T14:20:34.368Z,4.20
2023-04-18T14:23:38.335Z,4.45
2023-04-18T14:26:41.841Z,4.13
2023-04-18T14:29:45.666Z,4.23
2023-04-18T14:32:49.029Z,4.60
2023-04-18T14:35:54.326Z,4.30
2023-04-18T14:38:57.772Z,6.45
2023-04-18T14:42:01.864Z,6.72
2023-04-18T14:45:06.395Z,6.60
2023-04-18T14:48:10.592Z,6.88
2023-04-18T14:51:16.837Z,6.18
2023-04-18T14:54:20.868Z,6.32
2023-04-18T14:57:25.002Z,5.73
2023-04-18T15:00:29.492Z,6.15
2023-04-18T15:03:33.972Z,6.50
2023-04-18T15:06:39.234Z,6.63
2023-04-18T15:09:42.620Z,6.33
2023-04-18T15:12:47.670Z,6.90
2023-04-18T15:15:55.372Z,6.78
2023-04-18T15:19:00.475Z,6.15
2023-04-18T15:22:05.347Z,5.73
2023-04-18T15:25:10.013Z,6.32
2023-04-18T15:28:14.322Z,6.28
2023-04-18T15:31:18.335Z,6.00
2023-04-18T15:34:21.841Z,6.22
2023-04-18T15:37:27.592Z,5.88
2023-04-18T15:40:32.935Z,5.72
2023-04-18T15:43:36.960Z,5.95
2023-04-18T15:46:40.993Z,5.45
2023-04-18T15:49:45.157Z,5.65
2023-04-18T15:52:49.930Z,5.55
2023-04-18T15:55:54.090Z,4.80
2023-04-18T15:58:58.723Z,4.83
2023-04-18T16:02:03.014Z,4.45
2023-04-18T16:05:08.487Z,4.57
2023-04-18T16:08:14.274Z,4.22
2023-04-18T16:11:19.704Z,4.20
2023-04-18T16:14:23.604Z,4.10
2023-04-18T16:17:27.028Z,4.03
2023-04-18T16:20:33.344Z,3.83
2023-04-18T16:23:38.506Z,3.92
2023-04-18T16:26:42.369Z,3.97
2023-04-18T16:29:46.101Z,4.70
2023-04-18T16:32:49.937Z,5.73
2023-04-18T16:35:57.766Z,6.82
2023-04-18T16:39:04.637Z,5.82
2023-04-18T16:42:08.038Z,6.43
2023-04-18T16:45:11.938Z,6.18
2023-04-18T16:48:15.403Z,6.88
2023-04-18T16:51:19.368Z,7.38
2023-04-18T16:54:24.209Z,7.47
2023-04-18T16:57:28.131Z,9.07
2023-04-18T17:00:31.639Z,8.73
2023-04-18T17:03:36.578Z,8.63
2023-04-18T17:06:42.141Z,8.85
2023-04-18T17:09:48.014Z,9.48
2023-04-18T17:12:51.506Z,9.10
2023-04-18T17:15:55.351Z,9.63
2023-04-18T17:18:58.871Z,9.45
2023-04-18T17:22:03.667Z,8.85
2023-04-18T17:25:09.740Z,9.05
2023-04-18T17:28:14.020Z,10.32
2023-04-18T17:31:17.551Z,9.60
2023-04-18T17:34:21.436Z,9.27
2023-04-18T17:37:25.084Z,8.02
2023-04-18T17:40:30.324Z,8.50
2023-04-18T17:43:33.798Z,8.30
2023-04-18T17:46:37.785Z,8.93
2023-04-18T17:49:41.294Z,8.93
2023-04-18T17:52:46.395Z,11.77
2023-04-18T17:55:52.334Z,8.93
2023-04-18T17:58:56.774Z,9.55
2023-04-18T18:02:00.356Z,8.55
2023-04-18T18:05:05.268Z,9.00
2023-04-18T18:08:09.133Z,9.05
2023-04-18T18:11:14.320Z,8.57
2023-04-18T18:14:17.819Z,9.30
2023-04-18T18:17:22.077Z,9.13
2023-04-18T18:20:27.346Z,9.18
2023-04-18T18:23:31.702Z,9.48
2023-04-18T18:26:37.553Z,8.95
2023-04-18T18:29:41.594Z,8.70
2023-04-18T18:32:45.051Z,8.15
2023-04-18T18:35:48.931Z,8.90
2023-04-18T18:38:52.360Z,8.30
2023-04-18T18:41:58.546Z,9.35
2023-04-18T18:45:01.975Z,8.20
2023-04-18T18:48:07.673Z,9.55
2023-04-18T18:51:11.600Z,9.52
2023-04-18T18:54:15.955Z,8.80
2023-04-18T18:57:20.786Z,8.90
2023-04-18T19:00:24.972Z,8.90
2023-04-18T19:03:28.497Z,8.07
2023-04-18T19:06:32.615Z,8.17
2023-04-18T19:09:36.951Z,8.77
2023-04-18T19:12:42.110Z,8.52
2023-04-18T19:15:45.532Z,9.80
2023-04-18T19:18:50.792Z,8.70
2023-04-18T19:21:54.261Z,8.75
2023-04-18T19:25:00.598Z,8.25
2023-04-18T19:28:06.035Z,9.60
2023-04-18T19:31:10.530Z,9.10
2023-04-18T19:34:14.036Z,9.25
2023-04-18T19:37:18.032Z,8.57
2023-04-18T19:40:23.628Z,9.05
2023-04-18T19:43:29.125Z,8.80
2023-04-18T19:46:32.574Z,7.93
2023-04-18T19:49:36.598Z,9.70
2023-04-18T19:52:40.176Z,9.27
2023-04-18T19:55:46.161Z,9.55
2023-04-18T19:58:51.080Z,9.65
2023-04-18T20:01:55.172Z,8.88
2023-04-18T20:04:58.711Z,9.13
2023-04-18T20:08:03.300Z,8.37
2023-04-18T20:11:10.058Z,8.40
2023-04-18T20:14:15.318Z,8.63
2023-04-18T20:17:19.127Z,9.90
2023-04-18T20:20:23.630Z,9.13
2023-04-18T20:23:27.106Z,9.02
2023-04-18T20:26:31.300Z,9.80
2023-04-18T20:29:36.623Z,10.27
2023-04-18T20:32:40.455Z,11.13
2023-04-18T20:35:46.716Z,10.80
2023-04-18T20:38:50.572Z,10.83
2023-04-18T20:41:57.584Z,11.18
2023-04-18T20:45:03.108Z,10.10
2023-04-18T20:48:07.484Z,10.83
2023-04-18T20:51:11.248Z,10.05
2023-04-18T20:54:15.095Z,11.02
2023-04-18T20:57:20.403Z,15.90
2023-04-18T21:00:25.878Z,12.40
2023-04-18T21:03:29.767Z,14.80
2023-04-18T21:06:33.356Z,11.45
2023-04-18T21:09:37.673Z,10.50
2023-04-18T21:12:41.409Z,10.88
2023-04-18T21:15:46.796Z,10.73
2023-04-18T21:18:50.317Z,10.90
2023-04-18T21:21:54.085Z,10.27
2023-04-18T21:24:57.869Z,11.05
2023-04-18T21:28:01.853Z,10.45
2023-04-18T21:31:06.910Z,11.07
2023-04-18T21:34:11.407Z,10.18
2023-04-18T21:37:14.943Z,9.90
2023-04-18T21:40:18.815Z,10.00
2023-04-18T21:43:22.233Z,10.23
2023-04-18T21:46:27.542Z,10.68
2023-04-18T21:49:30.998Z,16.67
2023-04-18T21:52:34.952Z,10.40
2023-04-18T21:55:38.431Z,9.73
2023-04-18T21:58:42.295Z,9.00
2023-04-18T22:01:47.205Z,8.93
2023-04-18T22:04:50.868Z,9.30
2023-04-18T22:07:58.414Z,8.80
2023-04-18T22:11:02.955Z,8.97
2023-04-18T22:14:06.583Z,9.32
2023-04-18T22:17:11.628Z,9.45
2023-04-18T22:20:15.182Z,10.20
2023-04-18T22:23:18.800Z,9.07
2023-04-18T22:26:22.342Z,9.15
2023-04-18T22:29:26.028Z,8.82
2023-04-18T22:32:30.938Z,8.70
2023-04-18T22:35:34.665Z,8.63
2023-04-18T22:38:38.262Z,8.68
2023-04-18T22:41:42.049Z,8.53
2023-04-18T22:44:45.458Z,8.35
2023-04-18T22:47:50.828Z,8.15
2023-04-18T22:50:54.256Z,8.00
2023-04-18T22:53:58.234Z,8.00
2023-04-18T22:57:02.124Z,8.13
2023-04-18T23:00:07.595Z,7.47
2023-04-18T23:03:12.556Z,7.85
2023-04-18T23:06:17.523Z,7.07
2023-04-18T23:09:21.114Z,7.45
2023-04-18T23:12:25.414Z,7.73
2023-04-18T23:15:28.956Z,7.38
2023-04-18T23:18:34.071Z,7.38
2023-04-18T23:21:37.522Z,7.13
2023-04-18T23:24:41.536Z,7.90
2023-04-18T23:27:44.971Z,7.30
2023-04-18T23:30:50.169Z,7.40
2023-04-18T23:33:56.347Z,7.03
2023-04-18T23:37:00.241Z,5.97
2023-04-18T23:40:06.711Z,7.00
2023-04-18T23:43:10.592Z,6.67
2023-04-18T23:46:14.130Z,6.40
2023-04-18T23:49:19.602Z,6.40
2023-04-18T23:52:23.448Z,7.23
2023-04-18T23:55:27.275Z,6.63
2023-04-18T23:58:31.713Z,6.38
